createdAt,value
2018-09-21T00:02:15.439Z,6.77
2018-09-21T00:04:42.891Z,6.00
2018-09-21T00:07:10.327Z,5.87
2018-09-21T00:09:37.718Z,5.93
2018-09-21T00:12:05.472Z,5.83
2018-09-21T00:14:32.846Z,6.30
2018-09-21T00:17:00.291Z,6.30
2018-09-21T00:19:27.670Z,5.73
2018-09-21T00:21:55.046Z,6.47
2018-09-21T00:24:22.425Z,5.77
2018-09-21T00:26:49.910Z,6.20
2018-09-21T00:29:17.351Z,5.67
2018-09-21T00:31:44.774Z,5.63
2018-09-21T00:34:12.170Z,6.63
2018-09-21T00:36:39.593Z,6.60
2018-09-21T00:39:08.362Z,5.90
2018-09-21T00:41:35.745Z,6.43
2018-09-21T00:44:03.566Z,5.60
2018-09-21T00:46:30.966Z,6.30
2018-09-21T00:48:58.400Z,6.40
2018-09-21T00:51:25.810Z,5.77
2018-09-21T00:53:53.213Z,6.23
2018-09-21T00:56:20.606Z,7.07
2018-09-21T00:58:48.034Z,5.57
2018-09-21T01:01:15.425Z,6.63
2018-09-21T01:03:42.833Z,6.30
2018-09-21T01:06:10.222Z,6.03
2018-09-21T01:08:37.637Z,6.47
2018-09-21T01:11:05.062Z,6.33
2018-09-21T01:13:32.456Z,5.70
2018-09-21T01:15:59.858Z,6.30
2018-09-21T01:18:27.274Z,6.37
2018-09-21T01:20:54.686Z,6.20
2018-09-21T01:23:22.128Z,6.00
2018-09-21T01:25:49.572Z,5.57
2018-09-21T01:28:16.967Z,5.83
2018-09-21T01:30:44.366Z,8.07
2018-09-21T01:33:11.735Z,6.23
2018-09-21T01:35:39.222Z,6.07
2018-09-21T01:38:06.630Z,6.40
2018-09-21T01:40:34.063Z,5.30
2018-09-21T01:43:01.487Z,5.77
2018-09-21T01:45:28.883Z,5.20
2018-09-21T01:47:56.302Z,5.27
2018-09-21T01:50:23.736Z,5.73
2018-09-21T01:52:51.137Z,5.87
2018-09-21T01:55:18.561Z,5.60
2018-09-21T01:57:45.995Z,5.67
2018-09-21T02:00:13.427Z,5.93
2018-09-21T02:02:40.817Z,5.50
2018-09-21T02:05:08.276Z,5.73
2018-09-21T02:07:35.750Z,5.97
2018-09-21T02:10:03.233Z,5.50
2018-09-21T02:12:30.647Z,5.70
2018-09-21T02:14:58.053Z,5.77
2018-09-21T02:17:25.473Z,5.83
2018-09-21T02:19:52.930Z,7.03
2018-09-21T02:22:20.337Z,5.63
2018-09-21T02:24:47.738Z,6.30
2018-09-21T02:27:15.115Z,6.10
2018-09-21T02:29:42.482Z,7.80
2018-09-21T02:32:09.916Z,6.10
2018-09-21T02:34:37.318Z,5.67
2018-09-21T02:37:04.749Z,6.83
2018-09-21T02:39:32.159Z,6.13
2018-09-21T02:41:59.571Z,5.77
2018-09-21T02:44:26.975Z,6.53
2018-09-21T02:46:54.413Z,5.57
2018-09-21T02:49:21.823Z,6.63
2018-09-21T02:51:49.240Z,5.37
2018-09-21T02:54:16.663Z,6.03
2018-09-21T02:56:44.142Z,5.90
2018-09-21T02:59:11.510Z,5.93
2018-09-21T03:01:38.937Z,5.50
2018-09-21T03:04:06.342Z,6.03
2018-09-21T03:06:33.739Z,7.13
2018-09-21T03:09:01.184Z,5.60
2018-09-21T03:11:28.633Z,9.10
2018-09-21T03:13:56.016Z,5.83
2018-09-21T03:16:23.441Z,6.40
2018-09-21T03:18:50.842Z,6.50
2018-09-21T03:21:18.261Z,5.70
2018-09-21T03:23:45.674Z,5.67
2018-09-21T03:26:13.064Z,5.10
2018-09-21T03:28:40.465Z,5.77
2018-09-21T03:31:07.906Z,5.60
2018-09-21T03:33:35.325Z,5.67
2018-09-21T03:36:02.720Z,6.20
2018-09-21T03:38:30.110Z,5.23
2018-09-21T03:40:57.560Z,6.43
2018-09-21T03:43:24.968Z,5.43
2018-09-21T03:45:52.382Z,6.30
2018-09-21T03:48:19.764Z,5.27
2018-09-21T03:50:47.172Z,5.47
2018-09-21T03:53:14.600Z,6.07
2018-09-21T03:55:42.042Z,5.53
2018-09-21T03:58:09.466Z,5.47
2018-09-21T04:00:36.856Z,5.83
2018-09-21T04:03:04.438Z,5.53
2018-09-21T04:05:31.822Z,6.40
2018-09-21T04:07:59.466Z,6.23
2018-09-21T04:10:26.856Z,6.20
2018-09-21T04:12:54.237Z,7.33
2018-09-21T04:15:21.695Z,6.07
2018-09-21T04:17:49.131Z,6.10
2018-09-21T04:20:16.551Z,5.87
2018-09-21T04:22:49.864Z,7.40
2018-09-21T04:25:17.309Z,5.73
2018-09-21T04:27:44.765Z,5.83
2018-09-21T04:30:12.177Z,6.50
2018-09-21T04:32:39.577Z,6.00
2018-09-21T04:35:07.077Z,5.40
2018-09-21T04:37:34.484Z,6.70
2018-09-21T04:40:01.871Z,6.40
2018-09-21T04:42:29.271Z,5.70
2018-09-21T04:44:56.680Z,5.57
2018-09-21T04:47:24.076Z,6.10
2018-09-21T04:49:51.476Z,6.00
2018-09-21T04:52:18.859Z,5.93
2018-09-21T04:54:46.308Z,5.60
2018-09-21T04:57:13.716Z,6.10
2018-09-21T04:59:41.145Z,5.87
2018-09-21T05:02:08.560Z,6.43
2018-09-21T05:04:37.317Z,5.73
2018-09-21T05:07:04.753Z,7.53
2018-09-21T05:09:32.144Z,5.67
2018-09-21T05:11:59.554Z,6.30
2018-09-21T05:14:26.995Z,5.17
2018-09-21T05:16:54.448Z,7.30
2018-09-21T05:19:21.863Z,5.30
2018-09-21T05:21:49.408Z,4.63
2018-09-21T05:24:16.799Z,5.90
2018-09-21T05:26:44.180Z,5.67
2018-09-21T05:29:11.577Z,4.93
2018-09-21T05:31:39.007Z,6.13
2018-09-21T05:34:06.551Z,5.43
2018-09-21T05:36:33.955Z,5.50
2018-09-21T05:39:01.331Z,5.27
2018-09-21T05:41:28.747Z,5.70
2018-09-21T05:43:56.141Z,5.83
2018-09-21T05:46:23.588Z,5.90
2018-09-21T05:48:50.971Z,6.23
2018-09-21T05:51:18.438Z,5.77
2018-09-21T05:53:45.860Z,6.03
2018-09-21T05:56:13.353Z,6.80
2018-09-21T05:58:40.714Z,6.20
2018-09-21T06:01:08.867Z,6.17
2018-09-21T06:03:36.322Z,5.60
2018-09-21T06:06:03.737Z,5.50
2018-09-21T06:08:31.206Z,5.87
2018-09-21T06:10:58.600Z,5.03
2018-09-21T06:13:26.038Z,5.60
2018-09-21T06:15:53.451Z,5.87
2018-09-21T06:18:20.896Z,6.57
2018-09-21T06:20:48.290Z,5.77
2018-09-21T06:23:15.724Z,5.63
2018-09-21T06:25:43.146Z,6.77
2018-09-21T06:28:10.614Z,6.03
2018-09-21T06:30:37.999Z,5.00
2018-09-21T06:33:05.496Z,6.77
2018-09-21T06:35:32.926Z,6.70
2018-09-21T06:38:00.358Z,4.53
2018-09-21T06:40:27.780Z,5.07
2018-09-21T06:42:55.202Z,5.83
2018-09-21T06:45:22.930Z,5.53
2018-09-21T06:47:50.336Z,6.13
2018-09-21T06:50:17.794Z,4.87
2018-09-21T06:52:45.182Z,4.93
2018-09-21T06:55:12.626Z,5.17
2018-09-21T06:57:40.113Z,5.00
2018-09-21T07:00:07.570Z,5.60
2018-09-21T07:02:34.984Z,6.47
2018-09-21T07:05:08.196Z,5.30
2018-09-21T07:07:35.670Z,5.13
2018-09-21T07:10:03.196Z,4.73
2018-09-21T07:12:30.613Z,4.57
2018-09-21T07:14:58.059Z,4.77
2018-09-21T07:17:25.484Z,4.50
2018-09-21T07:19:53.203Z,4.87
2018-09-21T07:22:20.606Z,5.27
2018-09-21T07:24:48.051Z,4.70
2018-09-21T07:27:15.466Z,5.17
2018-09-21T07:29:42.897Z,4.80
2018-09-21T07:32:10.322Z,4.40
2018-09-21T07:34:37.712Z,5.60
2018-09-21T07:37:05.148Z,4.67
2018-09-21T07:39:32.541Z,4.73
2018-09-21T07:41:59.994Z,4.93
2018-09-21T07:44:27.420Z,4.07
2018-09-21T07:46:55.138Z,7.57
2018-09-21T07:49:22.605Z,4.30
2018-09-21T07:51:50.024Z,5.07
2018-09-21T07:54:17.531Z,5.57
2018-09-21T07:56:44.903Z,5.00
2018-09-21T07:59:12.367Z,5.20
2018-09-21T08:01:39.750Z,4.87
2018-09-21T08:04:07.215Z,4.60
2018-09-21T08:06:34.632Z,5.07
2018-09-21T08:09:02.077Z,5.03
2018-09-21T08:11:29.504Z,4.13
2018-09-21T08:13:56.971Z,4.80
2018-09-21T08:16:24.401Z,4.90
2018-09-21T08:18:51.884Z,4.50
2018-09-21T08:21:19.304Z,4.50
2018-09-21T08:23:46.833Z,4.53
2018-09-21T08:26:14.262Z,5.07
2018-09-21T08:28:41.733Z,5.97
2018-09-21T08:31:09.129Z,4.27
2018-09-21T08:33:36.539Z,4.10
2018-09-21T08:36:04.006Z,5.43
2018-09-21T08:38:31.469Z,4.73
2018-09-21T08:40:59.075Z,4.57
2018-09-21T08:43:26.494Z,4.33
2018-09-21T08:45:53.917Z,5.10
2018-09-21T08:48:21.445Z,4.77
2018-09-21T08:50:48.856Z,4.90
2018-09-21T08:53:16.291Z,5.00
2018-09-21T08:55:43.781Z,4.03
2018-09-21T08:58:11.169Z,4.40
2018-09-21T09:00:38.593Z,3.90
2018-09-21T09:03:06.076Z,4.50
2018-09-21T09:05:33.524Z,5.17
2018-09-21T09:08:00.931Z,4.40
2018-09-21T09:10:28.428Z,4.63
2018-09-21T09:12:55.830Z,5.13
2018-09-21T09:15:23.247Z,5.60
2018-09-21T09:17:50.653Z,6.03
2018-09-21T09:20:18.081Z,4.90
2018-09-21T09:22:45.460Z,5.07
2018-09-21T09:25:12.961Z,4.87
2018-09-21T09:27:40.355Z,4.53
2018-09-21T09:30:07.866Z,4.90
2018-09-21T09:32:35.224Z,5.43
2018-09-21T09:35:02.686Z,5.00
2018-09-21T09:37:30.123Z,4.60
2018-09-21T09:39:57.576Z,4.40
2018-09-21T09:42:25.141Z,4.17
2018-09-21T09:44:52.568Z,5.07
2018-09-21T09:47:19.984Z,5.23
2018-09-21T09:49:47.428Z,4.80
2018-09-21T09:52:14.900Z,5.30
2018-09-21T09:54:42.412Z,4.00
2018-09-21T09:57:10.006Z,4.80
2018-09-21T09:59:37.527Z,5.00
2018-09-21T10:02:04.977Z,3.83
2018-09-21T10:04:32.402Z,4.17
2018-09-21T10:06:59.848Z,4.07
2018-09-21T10:09:27.327Z,4.80
2018-09-21T10:11:54.730Z,4.90
2018-09-21T10:14:22.146Z,4.60
2018-09-21T10:16:49.570Z,4.27
2018-09-21T10:19:16.982Z,5.23
2018-09-21T10:21:44.432Z,5.13
2018-09-21T10:24:12.028Z,5.53
2018-09-21T10:26:39.413Z,3.97
2018-09-21T10:29:06.857Z,3.43
2018-09-21T10:31:34.314Z,5.55
2018-09-21T10:34:01.721Z,4.77
2018-09-21T10:36:29.168Z,4.17
2018-09-21T10:38:56.666Z,4.90
2018-09-21T10:41:23.989Z,3.90
2018-09-21T10:43:51.392Z,6.45
2018-09-21T10:46:18.844Z,4.03
2018-09-21T10:48:46.254Z,5.03
2018-09-21T10:51:13.678Z,5.30
2018-09-21T10:53:41.120Z,4.15
2018-09-21T10:56:08.542Z,4.08
2018-09-21T10:58:36.112Z,5.87
2018-09-21T11:01:03.569Z,4.37
2018-09-21T11:03:30.968Z,4.37
2018-09-21T11:05:58.428Z,5.00
2018-09-21T11:08:25.883Z,5.13
2018-09-21T11:10:53.293Z,5.20
2018-09-21T11:13:20.684Z,4.43
2018-09-21T11:15:48.110Z,4.07
2018-09-21T11:18:15.570Z,6.17
2018-09-21T11:20:43.053Z,4.63
2018-09-21T11:23:10.487Z,4.20
2018-09-21T11:25:37.917Z,5.53
2018-09-21T11:28:05.477Z,5.10
2018-09-21T11:30:33.701Z,5.30
2018-09-21T11:33:01.243Z,5.03
2018-09-21T11:35:28.635Z,5.63
2018-09-21T11:37:56.079Z,4.57
2018-09-21T11:40:23.523Z,5.47
2018-09-21T11:42:50.922Z,5.27
2018-09-21T11:45:18.333Z,4.63
2018-09-21T11:47:45.762Z,5.50
2018-09-21T11:50:13.313Z,4.43
2018-09-21T11:52:40.725Z,5.57
2018-09-21T11:55:08.123Z,4.93
2018-09-21T11:57:35.539Z,4.37
2018-09-21T12:00:03.058Z,5.10
2018-09-21T12:02:30.502Z,4.70
2018-09-21T12:04:58.025Z,5.37
2018-09-21T12:07:25.418Z,5.33
2018-09-21T12:09:52.969Z,5.43
2018-09-21T12:12:20.378Z,4.90
2018-09-21T12:14:47.819Z,4.20
2018-09-21T12:17:15.203Z,4.30
2018-09-21T12:19:42.631Z,4.17
2018-09-21T12:22:10.069Z,4.97
2018-09-21T12:24:37.489Z,4.23
2018-09-21T12:27:04.926Z,4.12
2018-09-21T12:29:32.402Z,4.95
2018-09-21T12:31:59.808Z,4.47
2018-09-21T12:34:27.241Z,4.03
2018-09-21T12:36:54.664Z,3.98
2018-09-21T12:39:22.137Z,3.80
2018-09-21T12:41:49.538Z,4.92
2018-09-21T12:44:17.559Z,4.33
2018-09-21T12:46:44.973Z,3.95
2018-09-21T12:49:12.415Z,4.35
2018-09-21T12:51:39.856Z,4.95
2018-09-21T12:54:07.273Z,4.53
2018-09-21T12:56:34.722Z,4.65
2018-09-21T12:59:02.119Z,4.90
2018-09-21T13:01:29.525Z,3.75
2018-09-21T13:03:56.975Z,5.55
2018-09-21T13:06:24.414Z,5.13
2018-09-21T13:08:51.841Z,5.12
2018-09-21T13:11:19.301Z,4.10
2018-09-21T13:13:46.726Z,6.30
2018-09-21T13:16:14.143Z,3.85
2018-09-21T13:18:41.537Z,4.42
2018-09-21T13:21:08.975Z,4.33
2018-09-21T13:23:36.408Z,4.20
2018-09-21T13:26:03.857Z,4.92
2018-09-21T13:28:31.296Z,3.90
2018-09-21T13:30:58.806Z,4.17
2018-09-21T13:33:26.238Z,6.08
2018-09-21T13:35:53.713Z,3.20
2018-09-21T13:38:21.154Z,3.47
2018-09-21T13:40:48.599Z,3.22
2018-09-21T13:43:16.037Z,4.90
2018-09-21T13:45:43.549Z,3.40
2018-09-21T13:48:10.994Z,3.50
2018-09-21T13:50:38.637Z,4.77
2018-09-21T13:53:06.103Z,4.37
2018-09-21T13:55:33.542Z,4.87
2018-09-21T13:58:00.979Z,4.27
2018-09-21T14:00:28.525Z,5.33
2018-09-21T14:02:55.943Z,4.33
2018-09-21T14:05:23.477Z,4.17
2018-09-21T14:07:50.860Z,3.27
2018-09-21T14:10:18.315Z,4.17
2018-09-21T14:12:45.777Z,3.67
2018-09-21T14:15:13.205Z,4.60
2018-09-21T14:17:40.691Z,5.13
2018-09-21T14:20:08.157Z,3.67
2018-09-21T14:22:35.617Z,4.33
2018-09-21T14:25:03.092Z,4.43
2018-09-21T14:27:30.545Z,4.27
2018-09-21T14:29:57.997Z,5.50
2018-09-21T14:32:25.465Z,5.87
2018-09-21T14:34:52.932Z,5.00
2018-09-21T14:37:20.366Z,4.63
2018-09-21T14:39:47.834Z,4.93
2018-09-21T14:42:15.281Z,5.00
2018-09-21T14:44:42.716Z,4.80
2018-09-21T14:47:10.106Z,4.43
2018-09-21T14:49:37.526Z,6.27
2018-09-21T14:52:04.955Z,4.80
2018-09-21T14:54:32.387Z,4.40
2018-09-21T14:56:59.816Z,4.93
2018-09-21T14:59:27.239Z,4.33
2018-09-21T15:01:54.658Z,5.37
2018-09-21T15:04:22.095Z,8.00
2018-09-21T15:06:49.564Z,4.63
2018-09-21T15:09:16.995Z,4.90
2018-09-21T15:11:44.471Z,6.20
2018-09-21T15:14:11.969Z,4.20
2018-09-21T15:16:39.438Z,5.47
2018-09-21T15:19:06.858Z,4.83
2018-09-21T15:21:34.332Z,4.93
2018-09-21T15:24:01.849Z,5.53
2018-09-21T15:26:29.261Z,5.50
2018-09-21T15:28:56.685Z,4.33
2018-09-21T15:31:24.159Z,6.30
2018-09-21T15:33:52.145Z,4.97
2018-09-21T15:36:20.172Z,5.17
2018-09-21T15:38:47.580Z,5.37
2018-09-21T15:41:14.985Z,4.77
2018-09-21T15:43:42.435Z,4.17
2018-09-21T15:46:09.879Z,5.70
2018-09-21T15:48:37.259Z,5.03
2018-09-21T15:51:04.706Z,5.87
2018-09-21T15:53:32.137Z,5.50
2018-09-21T15:55:59.609Z,6.30
2018-09-21T15:58:27.035Z,5.93
2018-09-21T16:00:54.480Z,5.97
2018-09-21T16:03:21.880Z,5.80
2018-09-21T16:05:49.385Z,5.20
2018-09-21T16:08:16.955Z,5.53
2018-09-21T16:10:44.398Z,5.40
2018-09-21T16:13:11.820Z,5.60
2018-09-21T16:15:39.214Z,5.07
2018-09-21T16:18:06.648Z,4.90
2018-09-21T16:20:34.142Z,5.87
2018-09-21T16:23:01.584Z,5.90
2018-09-21T16:25:28.994Z,5.10
2018-09-21T16:27:56.443Z,5.70
2018-09-21T16:30:23.908Z,5.50
2018-09-21T16:32:51.628Z,7.17
2018-09-21T16:35:19.083Z,5.63
2018-09-21T16:37:46.565Z,5.70
2018-09-21T16:40:14.016Z,5.70
2018-09-21T16:42:41.467Z,8.60
2018-09-21T16:45:08.926Z,5.73
2018-09-21T16:47:36.331Z,5.37
2018-09-21T16:50:03.848Z,5.73
2018-09-21T16:52:31.363Z,6.17
2018-09-21T16:54:58.776Z,6.80
2018-09-21T16:57:26.198Z,5.27
2018-09-21T16:59:53.593Z,6.43
2018-09-21T17:02:20.999Z,6.63
2018-09-21T17:04:48.466Z,6.17
2018-09-21T17:07:16.285Z,5.97
2018-09-21T17:09:45.007Z,6.40
2018-09-21T17:12:12.383Z,6.60
2018-09-21T17:14:39.842Z,5.90
2018-09-21T17:17:07.273Z,5.50
2018-09-21T17:19:34.720Z,5.90
2018-09-21T17:22:02.201Z,6.30
2018-09-21T17:24:29.627Z,6.17
2018-09-21T17:26:57.052Z,7.33
2018-09-21T17:29:24.464Z,8.40
2018-09-21T17:31:51.897Z,6.73
2018-09-21T17:34:19.339Z,7.60
2018-09-21T17:36:46.793Z,7.17
2018-09-21T17:39:14.226Z,6.17
2018-09-21T17:41:41.678Z,5.83
2018-09-21T17:44:09.443Z,5.73
2018-09-21T17:46:36.869Z,5.37
2018-09-21T17:49:04.324Z,6.50
2018-09-21T17:51:31.771Z,6.40
2018-09-21T17:53:59.263Z,6.07
2018-09-21T17:56:26.837Z,6.53
2018-09-21T17:58:54.282Z,6.57
2018-09-21T18:01:21.819Z,5.77
2018-09-21T18:03:49.251Z,7.93
2018-09-21T18:06:16.663Z,6.67
2018-09-21T18:08:44.086Z,7.77
2018-09-21T18:11:12.158Z,16.93
2018-09-21T18:13:39.636Z,6.90
2018-09-21T18:16:07.761Z,9.57
2018-09-21T18:18:36.105Z,9.27
2018-09-21T18:21:03.548Z,5.10
2018-09-21T18:23:30.968Z,6.43
2018-09-21T18:25:59.208Z,7.30
2018-09-21T18:28:26.692Z,5.97
2018-09-21T18:30:54.688Z,5.57
2018-09-21T18:33:22.997Z,9.70
2018-09-21T18:35:50.476Z,6.03
2018-09-21T18:38:19.072Z,5.37
2018-09-21T18:40:46.557Z,5.97
2018-09-21T18:43:13.996Z,6.17
2018-09-21T18:45:41.449Z,5.07
2018-09-21T18:48:08.883Z,5.43
2018-09-21T18:50:36.394Z,7.20
2018-09-21T18:53:03.890Z,5.27
2018-09-21T18:55:31.650Z,6.40
2018-09-21T18:57:59.122Z,5.80
2018-09-21T19:00:26.590Z,5.27
2018-09-21T19:02:54.055Z,5.87
2018-09-21T19:05:21.500Z,5.90
2018-09-21T19:07:49.553Z,5.90
2018-09-21T19:10:17.677Z,7.70
2018-09-21T19:12:45.214Z,7.30
2018-09-21T19:15:12.765Z,5.43
2018-09-21T19:17:40.367Z,6.37
2018-09-21T19:20:08.600Z,3.73
2018-09-21T19:22:36.106Z,2.97
2018-09-21T19:25:03.612Z,3.23
2018-09-21T19:27:31.113Z,3.20
2018-09-21T19:29:58.548Z,2.77
2018-09-21T19:32:25.994Z,2.27
2018-09-21T19:34:53.403Z,1.93
2018-09-21T19:37:20.828Z,3.20
2018-09-21T19:39:48.256Z,2.13
2018-09-21T19:42:15.691Z,1.80
2018-09-21T19:44:43.120Z,2.40
2018-09-21T19:47:10.592Z,2.83
2018-09-21T19:49:38.132Z,2.00
2018-09-21T19:52:05.591Z,1.70
2018-09-21T19:54:33.081Z,2.33
2018-09-21T19:57:00.507Z,1.87
2018-09-21T19:59:27.926Z,1.80
2018-09-21T20:01:55.371Z,2.77
2018-09-21T20:04:22.822Z,2.10
2018-09-21T20:06:50.331Z,1.70
2018-09-21T20:09:17.850Z,3.13
2018-09-21T20:11:45.282Z,5.07
2018-09-21T20:14:12.703Z,3.50
2018-09-21T20:16:40.160Z,2.07
2018-09-21T20:19:07.603Z,1.90
2018-09-21T20:21:34.997Z,1.97
2018-09-21T20:24:02.420Z,2.07
2018-09-21T20:26:29.831Z,4.07
2018-09-21T20:28:57.333Z,3.07
2018-09-21T20:31:30.388Z,2.60
2018-09-21T20:33:57.846Z,2.53
2018-09-21T20:36:25.269Z,3.63
2018-09-21T20:38:52.684Z,4.30
2018-09-21T20:41:20.131Z,3.43
2018-09-21T20:43:47.536Z,3.17
2018-09-21T20:46:14.997Z,2.87
2018-09-21T20:48:42.436Z,2.90
2018-09-21T20:51:09.882Z,3.07
2018-09-21T20:53:37.738Z,2.83
2018-09-21T20:56:05.160Z,3.03
2018-09-21T20:58:32.530Z,3.23
2018-09-21T21:00:59.966Z,4.10
2018-09-21T21:03:27.468Z,4.40
2018-09-21T21:05:54.905Z,3.60
2018-09-21T21:08:22.376Z,2.33
2018-09-21T21:10:49.824Z,3.67
2018-09-21T21:13:17.253Z,3.63
2018-09-21T21:15:44.670Z,2.97
2018-09-21T21:18:12.066Z,3.40
2018-09-21T21:20:39.473Z,4.00
2018-09-21T21:23:06.954Z,4.20
2018-09-21T21:25:34.544Z,4.07
2018-09-21T21:28:01.970Z,3.73
2018-09-21T21:30:29.430Z,3.73
2018-09-21T21:32:56.890Z,4.27
2018-09-21T21:35:24.322Z,3.97
2018-09-21T21:37:51.828Z,4.23
2018-09-21T21:40:19.279Z,3.57
2018-09-21T21:42:46.685Z,3.53
2018-09-21T21:45:14.090Z,4.80
2018-09-21T21:47:41.568Z,3.13
2018-09-21T21:50:08.996Z,3.40
2018-09-21T21:52:36.440Z,3.33
2018-09-21T21:55:03.946Z,4.00
2018-09-21T21:57:31.411Z,4.03
2018-09-21T21:59:58.882Z,2.87
2018-09-21T22:02:26.407Z,2.43
2018-09-21T22:04:53.812Z,4.30
2018-09-21T22:07:21.247Z,3.57
2018-09-21T22:09:48.735Z,3.67
2018-09-21T22:12:21.832Z,3.23
2018-09-21T22:14:49.287Z,2.57
2018-09-21T22:17:16.676Z,3.77
2018-09-21T22:19:44.137Z,3.13
2018-09-21T22:22:11.550Z,4.17
2018-09-21T22:24:39.014Z,5.60
2018-09-21T22:27:06.487Z,4.53
2018-09-21T22:29:33.941Z,3.00
2018-09-21T22:32:01.394Z,3.27
2018-09-21T22:34:28.850Z,3.43
2018-09-21T22:36:56.277Z,2.90
2018-09-21T22:39:23.757Z,2.23
2018-09-21T22:41:51.160Z,3.27
2018-09-21T22:44:18.627Z,3.37
2018-09-21T22:46:46.093Z,3.17
2018-09-21T22:49:16.567Z,2.87
2018-09-21T22:51:43.963Z,2.63
2018-09-21T22:54:11.417Z,4.27
2018-09-21T22:56:39.707Z,5.13
2018-09-21T22:59:07.109Z,2.97
2018-09-21T23:01:34.525Z,3.27
2018-09-21T23:04:01.907Z,2.70
2018-09-21T23:06:29.311Z,3.47
2018-09-21T23:08:56.702Z,2.73
2018-09-21T23:11:24.231Z,2.47
2018-09-21T23:13:51.665Z,3.50
2018-09-21T23:16:19.164Z,4.23
2018-09-21T23:18:46.674Z,3.63
2018-09-21T23:21:14.085Z,4.37
2018-09-21T23:23:41.472Z,3.33
2018-09-21T23:26:08.912Z,2.60
2018-09-21T23:28:36.368Z,3.33
2018-09-21T23:31:03.774Z,3.97
2018-09-21T23:33:31.173Z,2.13
2018-09-21T23:35:58.583Z,2.83
2018-09-21T23:38:25.970Z,2.90
2018-09-21T23:40:53.355Z,2.90
2018-09-21T23:43:20.757Z,3.07
2018-09-21T23:45:48.170Z,3.97
2018-09-21T23:48:15.549Z,3.50
2018-09-21T23:50:42.990Z,3.57
2018-09-21T23:53:10.392Z,3.10
2018-09-21T23:55:37.824Z,3.83
2018-09-21T23:58:05.259Z,3.23
